Shenandoah, Texas
Current Conditions -  °F | °C
As of 6:53 AM on Thursday 18 Dec 2014 (Local Time) from KCXO Reporting Station
Overcast Overcast  
Wind Chill: 55°   Ceiling: 600
Heat Index: 55°   Visibility: 9mi
Dew Point: 52°   Wind: 5mph
Humidity: 89%   Direction: 30°NNE
Pressure: 30.1"   Gusts: NA
Location:  30.2373°N, 95.5058°W
Report Text: KCXO 181253Z AUTO 03004KT 9SM OVC006 13/11 A3010 RMK AO2 SLP190 T01280111
Loading
Personal Weather Stations






























Interactive Weather Map New forecast layout! Learn more

10-Day Weather Forecast

Advertisements
Track Severe Weather on mobile